Time;durP1;ratioP1;P1;durP2;ratioP2;P2;SDS_P1;SDS_P2;PMS_P1;PMS_P2;Temp;Humidity;BMP_temperature;BMP_pressure;BME280_temperature;BME280_humidity;BME280_pressure;Samples;Min_cycle;Max_cycle;Signal;HPM_P1;HPM_P2
2021/06/17 00:02:22;;;;;;;12.10;8.07;;;;;;;19.76;72.53;100653.48;125115;1093;64571;-78
2021/06/17 00:04:49;;;;;;;11.47;9.27;;;;;;;19.76;72.60;100653.48;126172;1092;65578;-79
2021/06/17 00:07:16;;;;;;;8.47;7.57;;;;;;;19.74;72.77;100655.59;126267;1093;64298;-79
2021/06/17 00:09:44;;;;;;;11.87;7.60;;;;;;;19.72;72.77;100647.78;125409;1093;64290;-80
2021/06/17 00:12:11;;;;;;;9.83;8.33;;;;;;;19.71;72.78;100651.52;124989;1093;64394;-77
2021/06/17 00:14:39;;;;;;;9.57;8.13;;;;;;;19.72;73.37;100655.86;124882;1093;64924;-78
2021/06/17 00:17:07;;;;;;;11.07;8.23;;;;;;;19.71;72.68;100650.70;124838;1092;64745;-78
2021/06/17 00:19:34;;;;;;;12.33;8.77;;;;;;;19.69;72.94;100658.97;124856;1093;64352;-77
2021/06/17 00:22:03;;;;;;;11.80;8.30;;;;;;;19.66;73.05;100646.00;125003;1093;64285;-78
2021/06/17 00:24:30;;;;;;;12.77;8.93;;;;;;;19.64;73.03;100649.98;124745;1093;64265;-77
2021/06/17 00:26:57;;;;;;;10.67;7.93;;;;;;;19.62;72.92;100644.02;124874;1093;64776;-77
2021/06/17 00:29:24;;;;;;;11.73;7.97;;;;;;;19.60;73.10;100648.83;124920;1093;64284;-77
2021/06/17 00:31:51;;;;;;;11.30;7.93;;;;;;;19.55;73.28;100641.43;125006;1093;64305;-79
2021/06/17 00:34:18;;;;;;;11.33;7.70;;;;;;;19.51;73.31;100649.18;124918;1093;64371;-79
2021/06/17 00:36:45;;;;;;;10.40;7.27;;;;;;;19.46;73.45;100649.05;124883;1093;64380;-77
2021/06/17 00:39:13;;;;;;;13.40;8.30;;;;;;;19.41;73.69;100654.33;124758;1092;65420;-77
2021/06/17 00:41:41;;;;;;;15.80;9.20;;;;;;;19.37;73.98;100649.66;125043;1093;64300;-77
2021/06/17 00:44:08;;;;;;;14.77;8.23;;;;;;;19.31;73.95;100646.83;125002;1093;64323;-77
2021/06/17 00:46:36;;;;;;;11.33;8.30;;;;;;;19.25;73.98;100653.14;124682;1093;64280;-76
2021/06/17 00:49:05;;;;;;;10.25;8.30;;;;;;;19.21;74.14;100656.53;124859;1092;64230;-79
2021/06/17 00:51:33;;;;;;;12.10;8.07;;;;;;;19.13;74.30;100650.46;124883;1093;64629;-76
2021/06/17 00:54:00;;;;;;;14.93;8.27;;;;;;;19.08;74.41;100647.66;124755;1092;64283;-76
2021/06/17 00:56:28;;;;;;;10.73;7.20;;;;;;;19.03;74.96;100650.21;125341;1093;64237;-79
2021/06/17 00:58:57;;;;;;;11.63;6.97;;;;;;;19.01;75.22;100646.13;124920;1093;64294;-78
2021/06/17 01:01:25;;;;;;;9.97;7.57;;;;;;;18.97;74.93;100640.38;125281;1093;64336;-77
2021/06/17 01:03:52;;;;;;;11.13;7.53;;;;;;;18.95;74.99;100642.48;124910;1093;64298;-77
2021/06/17 01:06:19;;;;;;;11.60;8.03;;;;;;;18.92;74.96;100640.27;124661;1093;64307;-77
2021/06/17 01:09:05;;;;;;;9.70;8.40;;;;;;;18.90;75.18;100634.30;124944;1093;64288;-77
2021/06/17 01:11:46;;;;;;;10.50;9.15;;;;;;;18.88;75.22;100628.34;124940;1093;64323;-77
2021/06/17 01:14:18;;;;;;;10.10;8.25;;;;;;;18.83;75.07;100639.79;124787;1093;64387;-76
2021/06/17 01:16:51;;;;;;;10.90;7.97;;;;;;;18.77;75.68;100629.12;124849;1093;64243;-77
2021/06/17 01:19:30;;;;;;;11.83;9.03;;;;;;;18.71;75.80;100631.66;124931;1093;64233;-77
2021/06/17 01:21:57;;;;;;;11.00;8.37;;;;;;;18.66;75.88;100628.86;125007;1092;64782;-78
2021/06/17 01:24:41;;;;;;;11.80;8.30;;;;;;;18.61;76.20;100626.02;124930;1093;64258;-79
2021/06/17 01:27:30;;;;;;;10.90;8.67;;;;;;;18.57;76.42;100624.84;124906;1093;64258;-77
2021/06/17 01:30:10;;;;;;;10.23;7.67;;;;;;;18.56;76.65;100628.59;124909;1092;64317;-76
2021/06/17 01:32:40;;;;;;;12.10;8.45;;;;;;;18.53;76.61;100623.66;124844;1093;64380;-77
2021/06/17 01:35:10;;;;;;;10.67;8.63;;;;;;;18.49;76.58;100623.32;125071;1093;64336;-77
2021/06/17 01:37:39;;;;;;;12.90;8.63;;;;;;;18.48;76.88;100621.66;124878;1093;64322;-76
2021/06/17 01:40:10;;;;;;;14.00;9.67;;;;;;;18.46;77.14;100613.02;124945;1093;64377;-76
2021/06/17 01:42:41;;;;;;;10.47;8.60;;;;;;;18.45;77.29;100619.45;124958;1092;64246;-76
2021/06/17 01:45:08;;;;;;;9.93;8.17;;;;;;;18.44;77.50;100625.05;124937;1093;64288;-76
2021/06/17 01:47:38;;;;;;;13.13;8.20;;;;;;;18.41;77.28;100626.33;124966;1093;64298;-76
2021/06/17 01:50:07;;;;;;;12.83;8.73;;;;;;;18.39;77.40;100622.23;124796;1092;64261;-76
2021/06/17 01:52:34;;;;;;;12.13;8.20;;;;;;;18.37;77.60;100625.14;124918;1092;64403;-76
2021/06/17 01:55:02;;;;;;;12.67;9.10;;;;;;;18.36;77.64;100622.67;124934;1093;64554;-76
2021/06/17 01:57:32;;;;;;;11.00;8.53;;;;;;;18.32;77.67;100617.77;126008;1093;64381;-76
2021/06/17 02:00:01;;;;;;;11.67;8.80;;;;;;;18.29;77.79;100622.77;124839;1091;64909;-77
2021/06/17 02:02:30;;;;;;;13.43;9.03;;;;;;;18.25;77.97;100610.84;124917;1092;64379;-77
2021/06/17 02:04:59;;;;;;;16.27;9.20;;;;;;;18.21;78.26;100613.19;124845;1092;64320;-78
2021/06/17 02:07:26;;;;;;;12.77;8.53;;;;;;;18.18;78.47;100605.57;124864;1093;64301;-77
2021/06/17 02:09:55;;;;;;;12.17;7.97;;;;;;;18.16;78.51;100602.30;124993;1093;64355;-77
2021/06/17 02:12:23;;;;;;;17.10;9.13;;;;;;;18.16;78.51;100607.66;124846;1093;65897;-76
2021/06/17 02:14:51;;;;;;;12.20;9.17;;;;;;;18.14;78.61;100609.75;124710;1093;64240;-78
2021/06/17 02:17:20;;;;;;;14.50;9.90;;;;;;;18.13;78.69;100608.13;124660;1091;64424;-77
2021/06/17 02:19:51;;;;;;;12.47;8.30;;;;;;;18.14;78.68;100604.38;125119;1093;64287;-78
2021/06/17 02:22:20;;;;;;;14.40;9.00;;;;;;;18.12;78.72;100606.48;124920;1092;64310;-77
2021/06/17 02:24:54;;;;;;;12.43;9.40;;;;;;;18.10;79.00;100603.20;124719;1093;64326;-78
2021/06/17 02:27:27;;;;;;;12.50;9.87;;;;;;;18.08;78.92;100605.28;125184;1092;64198;-77
2021/06/17 02:30:00;;;;;;;16.07;9.63;;;;;;;18.07;78.98;100595.61;125103;1092;64300;-79
2021/06/17 02:32:30;;;;;;;13.53;9.77;;;;;;;18.05;79.18;100595.83;124946;1093;64393;-77
2021/06/17 02:34:59;;;;;;;12.45;9.90;;;;;;;18.06;79.05;100604.70;124812;1093;64288;-77
2021/06/17 02:37:29;;;;;;;15.37;10.37;;;;;;;18.05;78.97;100595.83;124696;1093;64249;-77
2021/06/17 02:39:56;;;;;;;12.07;9.73;;;;;;;18.04;79.56;100594.20;125310;1093;64346;-77
2021/06/17 02:42:26;;;;;;;11.27;9.67;;;;;;;18.03;79.32;100597.11;125667;1092;64218;-79
2021/06/17 02:44:54;;;;;;;13.43;10.10;;;;;;;18.02;79.36;100596.30;126207;1093;64285;-77
2021/06/17 02:47:22;;;;;;;13.50;10.10;;;;;;;18.02;79.46;100600.82;124857;1093;64320;-79
2021/06/17 02:49:49;;;;;;;15.60;10.20;;;;;;;18.02;79.62;100598.98;125719;1093;64285;-79
2021/06/17 02:52:17;;;;;;;12.00;10.70;;;;;;;17.99;79.52;100595.92;125231;1092;64269;-77
2021/06/17 02:54:44;;;;;;;16.53;11.33;;;;;;;17.99;79.45;100590.55;124801;1092;64429;-79
2021/06/17 02:57:41;;;;;;;12.87;9.27;;;;;;;17.95;79.63;100584.00;124739;1093;64390;-81
2021/06/17 03:00:14;;;;;;;18.30;10.73;;;;;;;17.91;79.69;100583.63;124981;1093;64342;-77
2021/06/17 03:03:13;;;;;;;14.50;10.45;;;;;;;17.86;79.82;100583.49;124811;1092;64288;-77
2021/06/17 03:05:51;;;;;;;12.93;9.77;;;;;;;17.81;79.74;100600.24;124808;1091;64285;-77
2021/06/17 03:08:35;;;;;;;12.83;9.83;;;;;;;17.77;79.90;100593.69;124818;1093;64406;-77
2021/06/17 03:11:07;;;;;;;11.45;10.10;;;;;;;17.75;80.40;100590.41;124801;1092;64421;-79
2021/06/17 03:13:36;;;;;;;11.50;9.53;;;;;;;17.75;80.38;100595.77;125056;1093;64774;-77
2021/06/17 03:16:05;;;;;;;15.50;10.40;;;;;;;17.73;80.46;100592.49;124826;1093;64240;-77
2021/06/17 03:18:34;;;;;;;16.05;11.45;;;;;;;17.72;80.67;100590.84;124820;1093;64310;-79
2021/06/17 03:21:03;;;;;;;14.77;11.00;;;;;;;17.76;81.09;100599.27;124934;1092;64291;-78
2021/06/17 03:23:32;;;;;;;15.47;11.07;;;;;;;17.77;80.78;100595.55;124877;1093;64272;-78
2021/06/17 03:26:04;;;;;;;15.30;9.37;;;;;;;17.77;80.76;100592.88;125058;1093;64324;-77
2021/06/17 03:28:34;;;;;;;11.40;10.20;;;;;;;17.80;80.83;100597.78;125306;1093;65260;-80
2021/06/17 03:31:03;;;;;;;13.00;9.93;;;;;;;17.80;80.82;100603.14;124948;1092;64281;-77
2021/06/17 03:33:33;;;;;;;16.35;10.35;;;;;;;17.83;80.76;100597.34;124808;1092;64854;-78
2021/06/17 03:36:01;;;;;;;15.37;9.77;;;;;;;17.85;80.71;100584.52;124922;1092;64378;-77
2021/06/17 03:38:30;;;;;;;14.50;9.55;;;;;;;17.87;80.47;100587.80;125291;1093;64288;-77
2021/06/17 03:40:59;;;;;;;13.40;10.00;;;;;;;17.89;80.47;100597.28;124746;1093;64307;-78
2021/06/17 03:43:27;;;;;;;12.60;10.03;;;;;;;17.89;80.56;100589.23;124821;1093;64307;-80
2021/06/17 03:45:56;;;;;;;15.05;10.55;;;;;;;17.90;80.43;100593.55;125065;1093;64285;-79
2021/06/17 03:48:24;;;;;;;12.83;9.63;;;;;;;17.88;80.39;100592.14;124914;1093;64285;-77
2021/06/17 03:50:52;;;;;;;14.57;10.33;;;;;;;17.90;80.35;100592.73;124891;1093;64292;-77
2021/06/17 03:53:20;;;;;;;15.97;10.40;;;;;;;17.91;80.26;100597.88;124921;1093;64386;-77
2021/06/17 03:55:52;;;;;;;12.27;9.57;;;;;;;17.95;80.39;100600.91;124797;1093;64284;-78
2021/06/17 03:58:23;;;;;;;12.10;9.37;;;;;;;17.99;80.09;100601.29;124785;1092;64341;-77
2021/06/17 04:00:51;;;;;;;13.00;9.50;;;;;;;18.01;80.12;100602.70;124762;1093;64332;-76
2021/06/17 04:03:19;;;;;;;14.93;9.90;;;;;;;18.06;80.29;100618.12;124834;1093;64326;-77
2021/06/17 04:05:48;;;;;;;16.60;10.93;;;;;;;18.12;80.09;100601.11;124991;1093;65575;-77
2021/06/17 04:08:19;;;;;;;15.03;9.77;;;;;;;18.16;80.05;100604.17;124874;1093;64301;-76
2021/06/17 04:10:47;;;;;;;15.07;10.53;;;;;;;18.19;79.86;100592.95;124735;1092;64374;-76
2021/06/17 04:13:16;;;;;;;13.10;9.57;;;;;;;18.23;79.70;100591.45;124704;1092;64387;-77
2021/06/17 04:15:44;;;;;;;11.53;9.07;;;;;;;18.27;79.77;100585.39;125058;1092;64285;-78
2021/06/17 04:18:12;;;;;;;13.13;8.87;;;;;;;18.30;79.70;100590.33;124746;1093;64287;-78
2021/06/17 04:20:44;;;;;;;11.50;8.47;;;;;;;18.37;79.52;100592.91;124813;1093;64387;-77
2021/06/17 04:23:15;;;;;;;15.00;10.43;;;;;;;18.43;79.50;100596.56;125105;1093;64335;-76
2021/06/17 04:25:44;;;;;;;15.83;10.03;;;;;;;18.51;79.16;100598.92;124677;1093;64390;-78
2021/06/17 04:28:12;;;;;;;16.00;10.10;;;;;;;18.56;79.29;100590.17;124828;1092;64304;-77
2021/06/17 04:30:41;;;;;;;14.67;10.00;;;;;;;18.63;79.10;100602.43;125000;1093;64269;-77
2021/06/17 04:33:11;;;;;;;11.75;9.00;;;;;;;18.69;79.02;100593.45;124886;1093;64313;-77
2021/06/17 04:35:42;;;;;;;12.93;9.13;;;;;;;18.74;78.75;100588.22;124677;1093;64377;-76
2021/06/17 04:38:14;;;;;;;14.77;8.77;;;;;;;18.81;78.48;100588.14;124840;1093;64343;-77
2021/06/17 04:40:45;;;;;;;14.10;10.13;;;;;;;18.88;78.47;100588.02;125075;1092;64282;-77
2021/06/17 04:43:14;;;;;;;12.47;8.20;;;;;;;18.94;78.34;100587.09;124694;1093;66057;-78
2021/06/17 04:45:42;;;;;;;11.03;8.60;;;;;;;19.06;78.40;100589.77;124876;1093;64294;-78
2021/06/17 04:48:12;;;;;;;13.00;8.03;;;;;;;19.14;78.19;100584.05;124809;1092;64455;-78
2021/06/17 04:50:40;;;;;;;12.27;9.60;;;;;;;19.22;78.31;100581.01;124636;1093;64285;-77
2021/06/17 04:53:18;;;;;;;11.33;9.03;;;;;;;19.32;78.43;100585.80;124902;1093;64293;-76
2021/06/17 04:55:56;;;;;;;12.53;8.20;;;;;;;19.40;78.22;100580.04;124868;1092;64285;-77
2021/06/17 04:58:24;;;;;;;14.53;8.90;;;;;;;19.48;78.18;100584.25;125305;1093;65036;-78
2021/06/17 05:00:51;;;;;;;14.23;8.77;;;;;;;19.58;77.97;100597.92;125105;1092;64237;-77
2021/06/17 05:03:19;;;;;;;13.33;9.13;;;;;;;19.66;77.64;100602.94;125177;1092;64278;-79
2021/06/17 05:05:50;;;;;;;8.83;7.37;;;;;;;19.75;77.52;100601.54;125231;1093;64403;-78
2021/06/17 05:10:53;;;;;;;12.37;9.10;;;;;;;19.95;77.13;100592.23;125046;1093;64579;-78
2021/06/17 05:13:23;;;;;;;17.13;9.20;;;;;;;20.05;77.06;100591.63;125099;1093;64326;-80
2021/06/17 05:15:52;;;;;;;13.25;8.10;;;;;;;20.13;77.01;100588.55;124822;1093;64352;-72
2021/06/17 05:18:22;;;;;;;8.73;7.30;;;;;;;20.20;76.74;100599.17;124982;1092;64760;-73
2021/06/17 05:20:51;;;;;;;11.50;8.23;;;;;;;20.27;76.96;100595.25;124940;1093;64282;-74
2021/06/17 05:23:21;;;;;;;8.23;6.83;;;;;;;20.35;76.58;100592.17;124713;1092;64288;-72
2021/06/17 05:25:50;;;;;;;12.77;8.67;;;;;;;20.48;76.39;100596.43;125020;1092;64964;-72
2021/06/17 05:28:21;;;;;;;11.07;8.30;;;;;;;20.61;76.34;100603.42;124855;1093;64235;-73
2021/06/17 05:30:51;;;;;;;11.80;7.17;;;;;;;20.75;75.71;100598.54;125256;1093;65510;-73
2021/06/17 05:33:18;;;;;;;10.43;8.23;;;;;;;20.86;75.52;100607.61;124961;1092;64256;-73
2021/06/17 05:35:46;;;;;;;10.87;8.13;;;;;;;20.99;75.14;100604.56;124797;1093;64281;-73
2021/06/17 05:38:19;;;;;;;10.00;6.97;;;;;;;21.13;73.85;100615.84;124828;1093;64432;-71
2021/06/17 05:40:47;;;;;;;14.50;8.63;;;;;;;21.27;74.04;100625.23;124837;1093;64284;-71
2021/06/17 05:43:14;;;;;;;9.50;8.23;;;;;;;21.43;73.55;100634.38;124835;1093;64266;-72
2021/06/17 05:45:42;;;;;;;11.20;7.93;;;;;;;21.56;73.48;100634.02;124891;1093;64378;-72
2021/06/17 05:48:10;;;;;;;13.83;8.43;;;;;;;21.70;72.50;100633.67;124652;1092;64300;-71
2021/06/17 05:50:37;;;;;;;10.87;7.87;;;;;;;21.83;72.22;100640.59;124690;1093;64347;-71
2021/06/17 05:53:05;;;;;;;10.10;5.83;;;;;;;21.89;70.19;100632.29;124836;1092;64288;-71
2021/06/17 05:55:33;;;;;;;12.87;8.27;;;;;;;21.94;70.47;100629.64;124607;1093;65495;-71
2021/06/17 05:58:00;;;;;;;18.17;7.53;;;;;;;22.05;70.88;100632.47;124898;1093;64285;-72
2021/06/17 06:00:27;;;;;;;12.63;8.10;;;;;;;22.13;70.33;100627.42;124670;1093;64307;-72
2021/06/17 06:02:54;;;;;;;9.70;8.20;;;;;;;22.25;70.76;100630.02;124845;1093;64278;-72
2021/06/17 06:05:22;;;;;;;13.63;7.80;;;;;;;22.35;70.34;100635.52;124640;1093;64305;-71
2021/06/17 06:07:59;;;;;;;7.33;6.60;;;;;;;22.47;69.88;100631.86;124859;1093;64284;-72
2021/06/17 06:10:27;;;;;;;11.30;7.20;;;;;;;22.58;69.59;100630.88;124974;1093;64374;-71
2021/06/17 06:12:55;;;;;;;11.33;7.40;;;;;;;22.72;69.56;100623.98;124806;1093;64284;-71
2021/06/17 06:15:23;;;;;;;10.80;7.43;;;;;;;22.86;69.45;100620.83;124709;1092;64428;-72
2021/06/17 06:17:50;;;;;;;8.80;7.17;;;;;;;23.00;69.15;100625.58;124847;1093;64307;-72
2021/06/17 06:20:18;;;;;;;8.90;6.47;;;;;;;23.13;68.85;100623.50;124890;1093;64281;-71
2021/06/17 06:22:45;;;;;;;10.57;6.30;;;;;;;23.28;68.77;100620.89;124834;1093;64285;-73
2021/06/17 06:25:12;;;;;;;11.40;7.33;;;;;;;23.41;68.43;100625.02;124606;1092;64217;-74
2021/06/17 06:27:41;;;;;;;13.70;7.93;;;;;;;23.56;68.20;100630.51;124637;1092;64442;-74
2021/06/17 06:30:09;;;;;;;12.20;7.67;;;;;;;23.72;68.42;100622.48;124837;1093;64288;-76
2021/06/17 06:32:36;;;;;;;7.40;6.07;;;;;;;23.84;66.46;100617.66;124634;1093;64379;-74
2021/06/17 06:35:09;;;;;;;10.20;6.93;;;;;;;23.91;65.83;100618.25;124838;1093;64270;-74
2021/06/17 06:37:37;;;;;;;8.70;6.57;;;;;;;24.02;66.27;100619.09;124896;1093;64262;-74
2021/06/17 06:40:06;;;;;;;7.43;6.50;;;;;;;24.13;66.88;100628.06;124742;1093;64342;-75
2021/06/17 06:42:47;;;;;;;9.33;7.20;;;;;;;24.25;66.15;100622.38;124942;1093;64283;-73
2021/06/17 06:45:14;;;;;;;9.27;6.90;;;;;;;24.34;65.77;100627.02;124947;1093;64268;-74
2021/06/17 06:47:42;;;;;;;8.17;5.70;;;;;;;24.44;65.78;100631.66;124719;1093;65480;-74
2021/06/17 06:50:10;;;;;;;10.63;6.87;;;;;;;24.57;64.66;100642.00;124899;1093;65524;-74
2021/06/17 06:52:38;;;;;;;7.53;5.40;;;;;;;24.69;61.82;100644.44;125049;1093;64770;-75
2021/06/17 06:55:06;;;;;;;10.33;7.20;;;;;;;24.81;61.88;100636.84;124862;1093;64327;-75
2021/06/17 06:57:35;;;;;;;10.77;6.83;;;;;;;24.94;61.67;100645.53;125875;1092;64958;-73
2021/06/17 07:00:07;;;;;;;8.93;6.50;;;;;;;25.02;60.79;100643.08;124954;1093;64287;-76
2021/06/17 07:02:35;;;;;;;7.20;5.60;;;;;;;25.13;60.86;100627.59;124632;1093;64214;-74
2021/06/17 07:05:06;;;;;;;9.50;6.23;;;;;;;25.27;60.22;100633.31;124736;1093;64211;-75
2021/06/17 07:07:34;;;;;;;8.10;6.40;;;;;;;25.37;59.55;100633.27;124809;1092;64258;-75
2021/06/17 07:10:01;;;;;;;9.70;6.30;;;;;;;25.44;60.03;100641.16;124678;1092;64801;-76
2021/06/17 07:12:28;;;;;;;7.50;6.23;;;;;;;25.52;59.62;100643.28;125080;1093;64259;-74
2021/06/17 07:14:58;;;;;;;7.10;6.33;;;;;;;25.64;59.40;100641.08;124899;1093;64253;-74
2021/06/17 07:17:26;;;;;;;6.53;5.87;;;;;;;25.81;59.64;100637.22;124856;1093;64422;-76
2021/06/17 07:19:55;;;;;;;10.73;5.80;;;;;;;25.94;57.94;100642.07;124952;1093;65510;-74
2021/06/17 07:22:23;;;;;;;9.03;5.73;;;;;;;25.96;57.05;100639.89;124859;1093;64298;-74
2021/06/17 07:24:53;;;;;;;6.45;5.85;;;;;;;26.01;57.14;100633.61;124846;1093;64301;-74
2021/06/17 07:27:21;;;;;;;7.30;6.17;;;;;;;26.05;57.23;100631.95;124967;1093;64307;-76
2021/06/17 07:29:49;;;;;;;7.10;6.07;;;;;;;26.17;58.01;100640.59;124758;1093;64888;-74
2021/06/17 07:32:16;;;;;;;6.57;5.90;;;;;;;26.30;57.36;100643.80;124656;1093;64361;-74
2021/06/17 07:34:45;;;;;;;7.47;5.87;;;;;;;26.42;56.87;100647.79;124701;1093;64348;-74
2021/06/17 07:37:14;;;;;;;9.03;6.87;;;;;;;26.54;55.39;100654.77;125268;1093;65508;-75
2021/06/17 07:39:41;;;;;;;8.17;5.67;;;;;;;26.63;56.51;100653.13;124661;1093;64253;-77
2021/06/17 07:42:10;;;;;;;11.05;5.70;;;;;;;26.75;55.62;100653.55;124901;1093;64486;-75
2021/06/17 07:44:38;;;;;;;7.37;6.43;;;;;;;26.84;55.72;100654.59;124863;1093;64282;-75
2021/06/17 07:47:05;;;;;;;7.77;5.67;;;;;;;26.96;55.78;100653.39;124891;1093;64281;-74
2021/06/17 07:49:33;;;;;;;5.97;4.60;;;;;;;27.10;55.68;100657.08;124901;1093;64308;-74
2021/06/17 07:52:01;;;;;;;7.10;5.30;;;;;;;27.21;55.46;100665.97;125011;1093;64281;-74
2021/06/17 07:54:28;;;;;;;7.93;6.23;;;;;;;27.29;55.23;100661.81;124860;1093;65502;-73
2021/06/17 07:56:58;;;;;;;6.37;5.13;;;;;;;27.39;54.46;100661.72;124903;1093;64390;-73
2021/06/17 07:59:27;;;;;;;9.57;6.37;;;;;;;27.49;54.52;100661.61;124958;1093;64336;-75
2021/06/17 08:01:54;;;;;;;7.43;5.27;;;;;;;27.64;54.56;100655.98;124783;1093;64285;-75
2021/06/17 08:04:24;;;;;;;9.43;5.83;;;;;;;27.78;53.25;100650.66;124887;1093;64275;-75
2021/06/17 08:06:51;;;;;;;9.57;5.60;;;;;;;27.91;53.03;100653.81;124696;1093;64232;-75
2021/06/17 08:09:18;;;;;;;7.13;5.50;;;;;;;28.01;53.44;100648.20;124860;1093;64448;-75
2021/06/17 08:11:50;;;;;;;6.50;5.00;;;;;;;28.10;51.42;100645.66;124820;1093;64287;-73
2021/06/17 08:14:28;;;;;;;5.37;4.87;;;;;;;28.20;51.97;100651.77;124861;1093;64760;-74
2021/06/17 08:16:57;;;;;;;5.30;4.77;;;;;;;28.31;50.22;100641.53;124774;1093;64220;-74
2021/06/17 08:19:32;;;;;;;7.30;5.00;;;;;;;28.40;49.43;100639.74;124920;1093;64451;-75
2021/06/17 08:22:05;;;;;;;6.23;4.53;;;;;;;28.48;49.31;100641.00;124833;1092;64323;-74
2021/06/17 08:24:33;;;;;;;;;;;;;;;28.62;49.43;100644.60;124986;1093;64288;-73
2021/06/17 08:27:00;;;;;;;5.90;4.30;;;;;;;28.74;48.76;100649.61;124709;1093;64314;-73
2021/06/17 08:29:27;;;;;;;6.90;4.65;;;;;;;28.85;48.66;100658.44;124663;1092;64388;-74
2021/06/17 08:31:54;;;;;;;5.90;4.00;;;;;;;28.96;48.64;100643.50;124688;1093;64386;-74
2021/06/17 08:34:24;;;;;;;7.20;4.65;;;;;;;29.02;47.22;100644.23;125040;1093;64374;-76
2021/06/17 08:36:52;;;;;;;6.67;4.53;;;;;;;29.08;47.94;100645.77;124852;1091;64289;-74
2021/06/17 08:39:20;;;;;;;5.50;4.40;;;;;;;29.16;46.29;100639.64;124767;1093;64300;-75
2021/06/17 08:41:47;;;;;;;6.77;3.87;;;;;;;29.24;46.08;100641.68;124611;1093;64349;-77
2021/06/17 08:44:14;;;;;;;7.07;4.20;;;;;;;29.34;45.51;100634.39;124856;1093;64233;-75
2021/06/17 08:46:42;;;;;;;7.03;3.90;;;;;;;29.43;44.61;100640.77;124707;1093;64342;-76
2021/06/17 08:49:09;;;;;;;6.83;4.37;;;;;;;29.47;44.47;100633.58;124889;1093;64297;-74
2021/06/17 08:51:40;;;;;;;4.50;4.00;;;;;;;29.55;44.44;100640.27;124850;1093;64308;-75
2021/06/17 08:54:08;;;;;;;4.37;3.67;;;;;;;29.63;44.68;100637.63;124631;1093;64278;-73
2021/06/17 08:56:36;;;;;;;5.25;4.00;;;;;;;29.75;44.06;100645.33;124905;1092;64284;-75
2021/06/17 08:59:05;;;;;;;5.83;4.10;;;;;;;29.87;43.87;100631.16;124939;1093;64836;-76
2021/06/17 09:01:33;;;;;;;4.37;3.90;;;;;;;29.96;42.63;100634.77;124734;1093;64255;-76
2021/06/17 09:04:02;;;;;;;4.80;4.10;;;;;;;30.01;43.48;100625.67;124701;1091;64644;-75
2021/06/17 09:06:29;;;;;;;8.20;3.80;;;;;;;30.12;42.25;100618.84;124921;1092;64326;-78
2021/06/17 09:09:02;;;;;;;5.37;3.70;;;;;;;30.15;41.21;100614.67;124932;1092;64301;-78
2021/06/17 09:11:30;;;;;;;5.50;3.47;;;;;;;30.25;41.93;100606.23;124848;1093;64307;-77
2021/06/17 09:14:20;;;;;;;6.10;3.70;;;;;;;30.34;42.06;100612.61;124853;1092;64326;-76
2021/06/17 09:16:59;;;;;;;5.90;4.03;;;;;;;30.44;42.39;100606.89;124608;1092;64300;-76
2021/06/17 09:19:48;;;;;;;4.97;3.93;;;;;;;30.54;41.34;100599.54;124876;1093;64329;-74
2021/06/17 09:22:18;;;;;;;4.57;3.80;;;;;;;30.61;40.76;100600.73;124764;1093;64360;-74
2021/06/17 09:24:50;;;;;;;6.30;3.67;;;;;;;30.64;40.85;100607.50;124941;1092;64348;-76
2021/06/17 09:27:35;;;;;;;4.73;3.80;;;;;;;30.68;40.77;100601.09;124828;1093;64753;-73
2021/06/17 09:30:12;;;;;;;6.53;3.33;;;;;;;30.75;39.96;100606.14;124880;1092;64802;-75
2021/06/17 09:32:46;;;;;;;6.03;3.57;;;;;;;30.85;40.01;100616.02;124810;1093;64288;-73
2021/06/17 09:35:18;;;;;;;4.37;3.37;;;;;;;30.94;40.07;100610.61;124719;1093;65546;-76
2021/06/17 09:37:47;;;;;;;3.57;3.27;;;;;;;31.02;39.65;100612.59;125003;1093;64380;-74
2021/06/17 09:40:25;;;;;;;4.80;3.27;;;;;;;31.14;40.29;100612.02;125059;1093;64372;-74
2021/06/17 09:42:54;;;;;;;5.43;3.23;;;;;;;31.23;40.32;100605.42;125013;1093;64262;-74
2021/06/17 09:45:24;;;;;;;4.40;3.20;;;;;;;31.34;38.68;100605.14;124952;1092;64740;-75
2021/06/17 09:47:51;;;;;;;3.43;2.87;;;;;;;31.44;39.52;100604.89;124986;1093;64384;-75
2021/06/17 09:50:27;;;;;;;6.10;3.00;;;;;;;31.48;36.26;100611.36;124948;1093;64282;-74
2021/06/17 09:52:57;;;;;;;6.97;3.60;;;;;;;31.48;36.76;100611.36;125018;1092;64258;-74
2021/06/17 09:55:41;;;;;;;4.33;2.77;;;;;;;31.56;36.86;100607.00;124882;1093;64310;-75
2021/06/17 09:58:12;;;;;;;4.03;2.97;;;;;;;31.65;37.58;100600.42;124646;1091;64783;-77
2021/06/17 10:00:54;;;;;;;5.07;3.60;;;;;;;31.76;37.81;100606.41;124832;1093;64425;-75
2021/06/17 10:03:21;;;;;;;8.40;3.03;;;;;;;31.85;37.02;100596.25;124882;1092;64278;-74
2021/06/17 10:05:48;;;;;;;4.33;2.90;;;;;;;31.91;37.68;100591.42;124802;1093;64285;-74
2021/06/17 10:08:15;;;;;;;3.70;2.93;;;;;;;31.98;36.21;100591.77;124653;1093;64285;-75
2021/06/17 10:10:43;;;;;;;5.70;3.40;;;;;;;32.02;36.79;100598.23;124862;1092;64307;-75
2021/06/17 10:13:10;;;;;;;4.77;3.20;;;;;;;32.08;36.69;100594.20;124820;1093;64246;-74
2021/06/17 10:15:37;;;;;;;4.33;2.90;;;;;;;32.08;37.58;100587.91;124826;1093;64307;-77
2021/06/17 10:18:04;;;;;;;4.70;3.47;;;;;;;32.13;35.76;100590.48;124891;1093;64295;-74
2021/06/17 10:20:32;;;;;;;3.93;3.20;;;;;;;32.17;35.90;100587.91;124861;1092;64296;-75
2021/06/17 10:23:00;;;;;;;4.47;2.97;;;;;;;32.20;36.58;100581.79;124916;1093;64304;-75
2021/06/17 10:25:35;;;;;;;3.97;2.97;;;;;;;32.21;35.91;100580.64;124744;1093;64278;-75
2021/06/17 10:28:03;;;;;;;5.23;3.00;;;;;;;32.32;36.98;100583.86;124794;1093;64349;-77
2021/06/17 10:30:44;;;;;;;4.47;3.07;;;;;;;32.46;35.41;100585.30;124768;1093;64318;-75
2021/06/17 10:33:28;;;;;;;6.70;2.83;;;;;;;32.55;34.22;100581.77;124910;1093;64285;-77
2021/06/17 10:36:24;;;;;;;3.73;3.20;;;;;;;32.62;33.65;100588.38;125076;1092;64240;-77
2021/06/17 10:39:09;;;;;;;3.10;2.47;;;;;;;32.65;33.96;100595.95;124874;1093;64211;-75
2021/06/17 10:41:46;;;;;;;3.83;2.50;;;;;;;32.73;32.87;100588.84;124830;1093;64323;-78
2021/06/17 10:44:43;;;;;;;5.13;2.97;;;;;;;32.77;33.02;100595.30;124824;1092;64296;-75
2021/06/17 10:47:39;;;;;;;3.93;2.60;;;;;;;32.77;32.26;100605.45;124880;1093;64232;-76
2021/06/17 10:50:31;;;;;;;3.13;2.40;;;;;;;32.77;31.43;100595.30;125011;1093;64288;-75
2021/06/17 10:53:28;;;;;;;2.93;2.23;;;;;;;32.81;29.70;100596.22;125108;1092;64396;-77
2021/06/17 10:56:19;;;;;;;3.63;2.00;;;;;;;32.91;29.67;100598.62;124943;1093;64531;-77
2021/06/17 10:58:46;;;;;;;2.93;1.93;;;;;;;32.98;30.28;100589.86;124923;1093;64380;-77
2021/06/17 11:01:31;;;;;;;2.20;1.60;;;;;;;33.05;29.54;100579.19;125105;1093;64330;-78
2021/06/17 11:04:13;;;;;;;3.20;1.83;;;;;;;33.09;29.16;100582.13;125258;1092;64216;-79
2021/06/17 11:06:52;;;;;;;2.87;1.80;;;;;;;33.19;30.97;100587.22;125052;1093;64397;-76
2021/06/17 11:09:43;;;;;;;3.07;2.17;;;;;;;33.39;29.57;100579.38;124856;1093;64293;-73
2021/06/17 11:12:13;;;;;;;2.40;2.00;;;;;;;33.51;29.06;100580.28;124788;1092;64307;-77
2021/06/17 11:14:43;;;;;;;4.60;2.43;;;;;;;33.59;29.97;100577.80;124611;1093;64229;-77
2021/06/17 11:17:29;;;;;;;3.40;2.10;;;;;;;33.66;30.60;100576.17;124702;1093;64354;-77
2021/06/17 11:20:23;;;;;;;3.23;2.00;;;;;;;33.76;30.78;100574.95;125261;1092;64253;-77
2021/06/17 11:22:58;;;;;;;5.93;2.40;;;;;;;33.84;28.32;100573.28;124823;1093;64285;-77
2021/06/17 11:25:28;;;;;;;2.67;1.90;;;;;;;33.87;27.27;100570.65;124977;1093;64378;-78
2021/06/17 11:27:58;;;;;;;3.93;2.07;;;;;;;33.90;25.93;100580.20;125056;1093;64175;-75
2021/06/17 11:30:38;;;;;;;3.60;2.50;;;;;;;33.94;27.63;100570.14;124882;1093;64230;-74
2021/06/17 11:33:15;;;;;;;4.10;2.30;;;;;;;33.87;27.45;100553.34;124950;1093;64447;-75